sensor_id;sensor_type;location;lat;lon;timestamp;temperature;humidity
43772;HTU21D;59066;54.782;32.024;2023-01-08T00:01:32;-16.41;70.90
43772;HTU21D;59066;54.782;32.024;2023-01-08T00:04:00;-16.41;70.77
43772;HTU21D;59066;54.782;32.024;2023-01-08T00:06:28;-16.40;71.06
43772;HTU21D;59066;54.782;32.024;2023-01-08T00:08:56;-16.38;70.53
43772;HTU21D;59066;54.782;32.024;2023-01-08T00:11:23;-16.46;70.64
43772;HTU21D;59066;54.782;32.024;2023-01-08T00:13:50;-16.46;70.71
43772;HTU21D;59066;54.782;32.024;2023-01-08T00:16:18;-16.53;70.59
43772;HTU21D;59066;54.782;32.024;2023-01-08T00:18:47;-16.56;70.72
43772;HTU21D;59066;54.782;32.024;2023-01-08T00:21:14;-16.55;70.84
43772;HTU21D;59066;54.782;32.024;2023-01-08T00:23:42;-16.56;70.77
43772;HTU21D;59066;54.782;32.024;2023-01-08T00:26:10;-16.54;70.94
43772;HTU21D;59066;54.782;32.024;2023-01-08T00:28:39;-16.56;70.70
43772;HTU21D;59066;54.782;32.024;2023-01-08T00:31:10;-16.56;70.63
43772;HTU21D;59066;54.782;32.024;2023-01-08T00:33:38;-16.59;70.70
43772;HTU21D;59066;54.782;32.024;2023-01-08T00:36:13;-16.59;70.62
43772;HTU21D;59066;54.782;32.024;2023-01-08T00:38:41;-16.62;70.58
43772;HTU21D;59066;54.782;32.024;2023-01-08T00:41:10;-16.58;70.71
43772;HTU21D;59066;54.782;32.024;2023-01-08T00:43:38;-16.61;70.74
43772;HTU21D;59066;54.782;32.024;2023-01-08T00:46:08;-16.63;70.61
43772;HTU21D;59066;54.782;32.024;2023-01-08T00:48:37;-16.61;70.73
43772;HTU21D;59066;54.782;32.024;2023-01-08T00:51:06;-16.61;70.78
43772;HTU21D;59066;54.782;32.024;2023-01-08T00:53:35;-16.61;70.79
43772;HTU21D;59066;54.782;32.024;2023-01-08T00:56:06;-16.66;70.49
43772;HTU21D;59066;54.782;32.024;2023-01-08T00:58:34;-16.65;70.76
43772;HTU21D;59066;54.782;32.024;2023-01-08T01:01:08;-16.70;70.48
43772;HTU21D;59066;54.782;32.024;2023-01-08T01:03:36;-16.70;70.70
43772;HTU21D;59066;54.782;32.024;2023-01-08T01:06:06;-16.66;70.71
43772;HTU21D;59066;54.782;32.024;2023-01-08T01:08:34;-16.70;70.64
43772;HTU21D;59066;54.782;32.024;2023-01-08T01:11:17;-16.78;70.54
43772;HTU21D;59066;54.782;32.024;2023-01-08T01:13:46;-16.82;70.64
43772;HTU21D;59066;54.782;32.024;2023-01-08T01:16:14;-16.83;70.67
43772;HTU21D;59066;54.782;32.024;2023-01-08T01:18:43;-16.88;70.64
43772;HTU21D;59066;54.782;32.024;2023-01-08T01:21:12;-16.94;70.52
43772;HTU21D;59066;54.782;32.024;2023-01-08T01:23:43;-16.99;70.64
43772;HTU21D;59066;54.782;32.024;2023-01-08T01:26:15;-17.01;70.61
43772;HTU21D;59066;54.782;32.024;2023-01-08T01:28:45;-17.09;70.66
43772;HTU21D;59066;54.782;32.024;2023-01-08T01:31:14;-17.08;70.84
43772;HTU21D;59066;54.782;32.024;2023-01-08T01:33:41;-17.08;70.91
43772;HTU21D;59066;54.782;32.024;2023-01-08T01:36:14;-17.09;70.80
43772;HTU21D;59066;54.782;32.024;2023-01-08T01:38:46;-17.11;70.93
43772;HTU21D;59066;54.782;32.024;2023-01-08T01:41:30;-17.09;70.87
43772;HTU21D;59066;54.782;32.024;2023-01-08T01:44:32;-17.10;70.90
43772;HTU21D;59066;54.782;32.024;2023-01-08T01:46:48;-17.08;70.91
43772;HTU21D;59066;54.782;32.024;2023-01-08T01:49:21;-17.10;70.83
43772;HTU21D;59066;54.782;32.024;2023-01-08T01:51:54;-17.12;70.77
43772;HTU21D;59066;54.782;32.024;2023-01-08T01:54:22;-17.11;70.83
43772;HTU21D;59066;54.782;32.024;2023-01-08T01:56:50;-17.09;70.91
43772;HTU21D;59066;54.782;32.024;2023-01-08T01:59:20;-17.04;70.91
43772;HTU21D;59066;54.782;32.024;2023-01-08T02:01:48;-17.06;70.71
43772;HTU21D;59066;54.782;32.024;2023-01-08T02:04:16;-17.06;70.79
43772;HTU21D;59066;54.782;32.024;2023-01-08T02:12:35;-17.12;70.77
43772;HTU21D;59066;54.782;32.024;2023-01-08T02:18:19;-17.18;70.69
43772;HTU21D;59066;54.782;32.024;2023-01-08T02:21:02;-17.21;70.55
43772;HTU21D;59066;54.782;32.024;2023-01-08T02:26:31;-17.15;70.62
43772;HTU21D;59066;54.782;32.024;2023-01-08T02:31:28;-17.17;70.40
43772;HTU21D;59066;54.782;32.024;2023-01-08T02:33:56;-17.17;70.64
43772;HTU21D;59066;54.782;32.024;2023-01-08T02:42:04;-17.07;70.64
43772;HTU21D;59066;54.782;32.024;2023-01-08T02:47:33;-17.03;70.57
43772;HTU21D;59066;54.782;32.024;2023-01-08T02:52:44;-17.08;70.54
43772;HTU21D;59066;54.782;32.024;2023-01-08T02:55:14;-17.12;70.48
43772;HTU21D;59066;54.782;32.024;2023-01-08T02:57:44;-17.11;70.58
43772;HTU21D;59066;54.782;32.024;2023-01-08T03:00:12;-17.15;70.68
43772;HTU21D;59066;54.782;32.024;2023-01-08T03:02:41;-17.18;70.68
43772;HTU21D;59066;54.782;32.024;2023-01-08T03:05:20;-17.17;70.71
43772;HTU21D;59066;54.782;32.024;2023-01-08T03:07:50;-17.24;70.67
43772;HTU21D;59066;54.782;32.024;2023-01-08T03:10:21;-17.20;70.80
43772;HTU21D;59066;54.782;32.024;2023-01-08T03:13:01;-17.16;70.65
43772;HTU21D;59066;54.782;32.024;2023-01-08T03:15:35;-17.11;70.84
43772;HTU21D;59066;54.782;32.024;2023-01-08T03:18:08;-17.14;70.61
43772;HTU21D;59066;54.782;32.024;2023-01-08T03:20:40;-17.20;70.45
43772;HTU21D;59066;54.782;32.024;2023-01-08T03:23:10;-17.25;70.53
43772;HTU21D;59066;54.782;32.024;2023-01-08T03:25:40;-17.27;70.35
43772;HTU21D;59066;54.782;32.024;2023-01-08T03:28:42;-17.26;70.50
43772;HTU21D;59066;54.782;32.024;2023-01-08T03:31:14;-17.27;70.50
43772;HTU21D;59066;54.782;32.024;2023-01-08T03:33:43;-17.25;70.38
43772;HTU21D;59066;54.782;32.024;2023-01-08T03:36:19;-17.29;70.30
43772;HTU21D;59066;54.782;32.024;2023-01-08T03:39:16;-17.33;70.45
43772;HTU21D;59066;54.782;32.024;2023-01-08T03:41:46;-17.30;70.41
43772;HTU21D;59066;54.782;32.024;2023-01-08T03:44:16;-17.24;70.64
43772;HTU21D;59066;54.782;32.024;2023-01-08T03:46:48;-17.23;70.38
43772;HTU21D;59066;54.782;32.024;2023-01-08T03:49:19;-17.28;70.20
43772;HTU21D;59066;54.782;32.024;2023-01-08T03:51:48;-17.28;70.32
43772;HTU21D;59066;54.782;32.024;2023-01-08T03:54:19;-17.25;70.42
43772;HTU21D;59066;54.782;32.024;2023-01-08T03:56:47;-17.31;70.18
43772;HTU21D;59066;54.782;32.024;2023-01-08T03:59:14;-17.39;70.33
43772;HTU21D;59066;54.782;32.024;2023-01-08T04:01:42;-17.43;70.33
43772;HTU21D;59066;54.782;32.024;2023-01-08T04:04:10;-17.42;70.50
43772;HTU21D;59066;54.782;32.024;2023-01-08T04:06:38;-17.40;70.51
43772;HTU21D;59066;54.782;32.024;2023-01-08T04:09:05;-17.41;70.48
43772;HTU21D;59066;54.782;32.024;2023-01-08T04:11:33;-17.40;70.65
43772;HTU21D;59066;54.782;32.024;2023-01-08T04:14:01;-17.36;70.74
43772;HTU21D;59066;54.782;32.024;2023-01-08T04:16:28;-17.35;70.58
43772;HTU21D;59066;54.782;32.024;2023-01-08T04:18:56;-17.35;70.51
43772;HTU21D;59066;54.782;32.024;2023-01-08T04:21:23;-17.33;70.39
43772;HTU21D;59066;54.782;32.024;2023-01-08T04:23:51;-17.25;70.86
43772;HTU21D;59066;54.782;32.024;2023-01-08T04:26:20;-17.22;70.41
43772;HTU21D;59066;54.782;32.024;2023-01-08T04:28:51;-17.16;70.48
43772;HTU21D;59066;54.782;32.024;2023-01-08T04:31:18;-17.23;70.40
43772;HTU21D;59066;54.782;32.024;2023-01-08T04:33:46;-17.25;70.32
43772;HTU21D;59066;54.782;32.024;2023-01-08T04:36:16;-17.29;70.19
43772;HTU21D;59066;54.782;32.024;2023-01-08T04:38:44;-17.28;70.24
43772;HTU21D;59066;54.782;32.024;2023-01-08T04:41:11;-17.31;70.30
43772;HTU21D;59066;54.782;32.024;2023-01-08T04:43:38;-17.38;70.09
43772;HTU21D;59066;54.782;32.024;2023-01-08T04:46:07;-17.36;70.37
43772;HTU21D;59066;54.782;32.024;2023-01-08T04:48:36;-17.41;70.18
43772;HTU21D;59066;54.782;32.024;2023-01-08T04:51:04;-17.37;70.38
43772;HTU21D;59066;54.782;32.024;2023-01-08T04:53:34;-17.36;70.32
43772;HTU21D;59066;54.782;32.024;2023-01-08T04:56:04;-17.30;70.52
43772;HTU21D;59066;54.782;32.024;2023-01-08T04:58:33;-17.25;70.42
43772;HTU21D;59066;54.782;32.024;2023-01-08T05:01:07;-17.18;70.42
43772;HTU21D;59066;54.782;32.024;2023-01-08T05:03:35;-17.20;70.23
43772;HTU21D;59066;54.782;32.024;2023-01-08T05:06:04;-17.23;70.27
43772;HTU21D;59066;54.782;32.024;2023-01-08T05:08:31;-17.23;70.39
43772;HTU21D;59066;54.782;32.024;2023-01-08T05:10:59;-17.25;70.19
43772;HTU21D;59066;54.782;32.024;2023-01-08T05:13:29;-17.23;70.24
43772;HTU21D;59066;54.782;32.024;2023-01-08T05:15:59;-17.24;70.29
43772;HTU21D;59066;54.782;32.024;2023-01-08T05:18:28;-17.25;70.17
43772;HTU21D;59066;54.782;32.024;2023-01-08T05:21:00;-17.24;70.48
43772;HTU21D;59066;54.782;32.024;2023-01-08T05:23:32;-17.20;70.48
43772;HTU21D;59066;54.782;32.024;2023-01-08T05:26:02;-17.25;70.29
43772;HTU21D;59066;54.782;32.024;2023-01-08T05:28:30;-17.25;70.41
43772;HTU21D;59066;54.782;32.024;2023-01-08T05:30:58;-17.28;70.34
43772;HTU21D;59066;54.782;32.024;2023-01-08T05:33:26;-17.24;70.50
43772;HTU21D;59066;54.782;32.024;2023-01-08T05:35:54;-17.28;70.39
43772;HTU21D;59066;54.782;32.024;2023-01-08T05:38:22;-17.23;70.54
43772;HTU21D;59066;54.782;32.024;2023-01-08T05:40:53;-17.23;70.41
43772;HTU21D;59066;54.782;32.024;2023-01-08T05:43:20;-17.28;70.42
43772;HTU21D;59066;54.782;32.024;2023-01-08T05:45:48;-17.30;70.52
43772;HTU21D;59066;54.782;32.024;2023-01-08T05:48:15;-17.29;70.52
43772;HTU21D;59066;54.782;32.024;2023-01-08T05:50:43;-17.28;70.70
43772;HTU21D;59066;54.782;32.024;2023-01-08T05:53:11;-17.27;70.50
43772;HTU21D;59066;54.782;32.024;2023-01-08T05:55:39;-17.23;70.55
43772;HTU21D;59066;54.782;32.024;2023-01-08T05:58:08;-17.28;70.23
43772;HTU21D;59066;54.782;32.024;2023-01-08T06:00:37;-17.27;70.56
43772;HTU21D;59066;54.782;32.024;2023-01-08T06:03:05;-17.29;70.55
43772;HTU21D;59066;54.782;32.024;2023-01-08T06:05:32;-17.28;70.68
43772;HTU21D;59066;54.782;32.024;2023-01-08T06:08:00;-17.28;70.66
43772;HTU21D;59066;54.782;32.024;2023-01-08T06:10:28;-17.23;70.73
43772;HTU21D;59066;54.782;32.024;2023-01-08T06:12:56;-17.24;70.49
43772;HTU21D;59066;54.782;32.024;2023-01-08T06:15:25;-17.22;70.66
43772;HTU21D;59066;54.782;32.024;2023-01-08T06:17:53;-17.16;70.94
43772;HTU21D;59066;54.782;32.024;2023-01-08T06:20:21;-17.07;70.93
43772;HTU21D;59066;54.782;32.024;2023-01-08T06:22:48;-17.08;70.84
43772;HTU21D;59066;54.782;32.024;2023-01-08T06:25:17;-17.03;70.68
43772;HTU21D;59066;54.782;32.024;2023-01-08T06:27:52;-17.06;70.71
43772;HTU21D;59066;54.782;32.024;2023-01-08T06:30:19;-17.04;70.67
43772;HTU21D;59066;54.782;32.024;2023-01-08T06:32:47;-17.03;70.81
43772;HTU21D;59066;54.782;32.024;2023-01-08T06:35:14;-17.01;70.79
43772;HTU21D;59066;54.782;32.024;2023-01-08T06:37:42;-17.03;70.71
43772;HTU21D;59066;54.782;32.024;2023-01-08T06:40:10;-17.01;70.84
43772;HTU21D;59066;54.782;32.024;2023-01-08T06:42:38;-17.00;70.70
43772;HTU21D;59066;54.782;32.024;2023-01-08T06:45:06;-16.98;70.63
43772;HTU21D;59066;54.782;32.024;2023-01-08T06:47:35;-17.02;70.61
43772;HTU21D;59066;54.782;32.024;2023-01-08T06:50:03;-16.98;70.81
43772;HTU21D;59066;54.782;32.024;2023-01-08T06:52:32;-16.94;70.70
43772;HTU21D;59066;54.782;32.024;2023-01-08T06:54:59;-16.92;70.67
43772;HTU21D;59066;54.782;32.024;2023-01-08T06:57:27;-16.91;70.67
43772;HTU21D;59066;54.782;32.024;2023-01-08T06:59:54;-16.87;70.82
43772;HTU21D;59066;54.782;32.024;2023-01-08T07:02:22;-16.80;70.71
43772;HTU21D;59066;54.782;32.024;2023-01-08T07:04:51;-16.80;70.74
43772;HTU21D;59066;54.782;32.024;2023-01-08T07:07:19;-16.80;70.45
43772;HTU21D;59066;54.782;32.024;2023-01-08T07:09:46;-16.79;70.43
43772;HTU21D;59066;54.782;32.024;2023-01-08T07:12:14;-16.70;70.64
43772;HTU21D;59066;54.782;32.024;2023-01-08T07:14:42;-16.65;70.57
43772;HTU21D;59066;54.782;32.024;2023-01-08T07:17:10;-16.62;70.59
43772;HTU21D;59066;54.782;32.024;2023-01-08T07:19:37;-16.58;70.57
43772;HTU21D;59066;54.782;32.024;2023-01-08T07:22:07;-16.53;70.71
43772;HTU21D;59066;54.782;32.024;2023-01-08T07:24:34;-16.52;70.41
43772;HTU21D;59066;54.782;32.024;2023-01-08T07:27:02;-16.48;70.42
43772;HTU21D;59066;54.782;32.024;2023-01-08T07:29:29;-16.36;70.67
43772;HTU21D;59066;54.782;32.024;2023-01-08T07:31:57;-16.33;70.43
43772;HTU21D;59066;54.782;32.024;2023-01-08T07:34:25;-16.29;70.47
43772;HTU21D;59066;54.782;32.024;2023-01-08T07:36:53;-16.25;70.48
43772;HTU21D;59066;54.782;32.024;2023-01-08T07:39:20;-16.21;70.46
43772;HTU21D;59066;54.782;32.024;2023-01-08T07:41:47;-16.17;70.56
43772;HTU21D;59066;54.782;32.024;2023-01-08T07:44:16;-16.13;70.23
43772;HTU21D;59066;54.782;32.024;2023-01-08T07:46:43;-16.09;70.07
43772;HTU21D;59066;54.782;32.024;2023-01-08T07:49:12;-16.05;69.76
43772;HTU21D;59066;54.782;32.024;2023-01-08T07:51:39;-15.92;69.98
43772;HTU21D;59066;54.782;32.024;2023-01-08T07:54:08;-15.79;70.07
43772;HTU21D;59066;54.782;32.024;2023-01-08T07:56:35;-15.70;70.08
43772;HTU21D;59066;54.782;32.024;2023-01-08T07:59:03;-15.62;70.55
43772;HTU21D;59066;54.782;32.024;2023-01-08T08:01:31;-15.63;69.94
43772;HTU21D;59066;54.782;32.024;2023-01-08T08:03:59;-15.54;70.05
43772;HTU21D;59066;54.782;32.024;2023-01-08T08:06:27;-15.48;70.04
43772;HTU21D;59066;54.782;32.024;2023-01-08T08:08:56;-15.37;70.27
43772;HTU21D;59066;54.782;32.024;2023-01-08T08:11:23;-15.38;69.67
43772;HTU21D;59066;54.782;32.024;2023-01-08T08:13:51;-15.33;69.65
43772;HTU21D;59066;54.782;32.024;2023-01-08T08:16:21;-15.28;69.71
43772;HTU21D;59066;54.782;32.024;2023-01-08T08:18:48;-15.33;69.04
43772;HTU21D;59066;54.782;32.024;2023-01-08T08:21:19;-15.19;69.39
43772;HTU21D;59066;54.782;32.024;2023-01-08T08:23:46;-15.14;69.60
43772;HTU21D;59066;54.782;32.024;2023-01-08T08:26:14;-15.05;69.41
43772;HTU21D;59066;54.782;32.024;2023-01-08T08:28:42;-15.03;69.25
43772;HTU21D;59066;54.782;32.024;2023-01-08T08:31:10;-14.95;69.61
43772;HTU21D;59066;54.782;32.024;2023-01-08T08:33:37;-14.94;68.95
43772;HTU21D;59066;54.782;32.024;2023-01-08T08:36:07;-14.95;68.85
43772;HTU21D;59066;54.782;32.024;2023-01-08T08:38:36;-14.85;69.18
43772;HTU21D;59066;54.782;32.024;2023-01-08T08:41:04;-14.76;69.12
43772;HTU21D;59066;54.782;32.024;2023-01-08T08:43:31;-14.71;69.38
43772;HTU21D;59066;54.782;32.024;2023-01-08T08:46:00;-14.74;68.93
43772;HTU21D;59066;54.782;32.024;2023-01-08T08:48:29;-14.67;68.99
43772;HTU21D;59066;54.782;32.024;2023-01-08T08:50:56;-14.61;69.07
43772;HTU21D;59066;54.782;32.024;2023-01-08T08:53:24;-14.56;69.10
43772;HTU21D;59066;54.782;32.024;2023-01-08T08:55:53;-14.54;68.87
43772;HTU21D;59066;54.782;32.024;2023-01-08T08:58:21;-14.52;68.71
43772;HTU21D;59066;54.782;32.024;2023-01-08T09:00:50;-14.39;69.57
43772;HTU21D;59066;54.782;32.024;2023-01-08T09:03:18;-14.31;69.47
43772;HTU21D;59066;54.782;32.024;2023-01-08T09:05:47;-14.28;70.00
43772;HTU21D;59066;54.782;32.024;2023-01-08T09:08:14;-14.20;69.94
43772;HTU21D;59066;54.782;32.024;2023-01-08T09:10:42;-14.17;69.72
43772;HTU21D;59066;54.782;32.024;2023-01-08T09:13:10;-14.16;69.79
43772;HTU21D;59066;54.782;32.024;2023-01-08T09:15:38;-14.17;69.64
43772;HTU21D;59066;54.782;32.024;2023-01-08T09:18:07;-14.11;69.54
43772;HTU21D;59066;54.782;32.024;2023-01-08T09:20:35;-14.04;69.80
43772;HTU21D;59066;54.782;32.024;2023-01-08T09:23:03;-13.93;69.90
43772;HTU21D;59066;54.782;32.024;2023-01-08T09:25:31;-13.86;70.07
43772;HTU21D;59066;54.782;32.024;2023-01-08T09:28:06;-13.78;70.19
43772;HTU21D;59066;54.782;32.024;2023-01-08T09:30:38;-13.66;70.49
43772;HTU21D;59066;54.782;32.024;2023-01-08T09:33:06;-13.62;70.19
43772;HTU21D;59066;54.782;32.024;2023-01-08T09:35:33;-13.51;70.55
43772;HTU21D;59066;54.782;32.024;2023-01-08T09:38:01;-13.49;70.20
43772;HTU21D;59066;54.782;32.024;2023-01-08T09:40:37;-13.41;70.01
43772;HTU21D;59066;54.782;32.024;2023-01-08T09:43:06;-13.36;69.88
43772;HTU21D;59066;54.782;32.024;2023-01-08T09:45:36;-13.26;69.98
43772;HTU21D;59066;54.782;32.024;2023-01-08T09:48:10;-13.16;70.25
43772;HTU21D;59066;54.782;32.024;2023-01-08T09:50:39;-13.17;69.70
43772;HTU21D;59066;54.782;32.024;2023-01-08T09:53:15;-13.11;69.35
43772;HTU21D;59066;54.782;32.024;2023-01-08T09:55:47;-13.07;69.12
43772;HTU21D;59066;54.782;32.024;2023-01-08T09:58:38;-13.03;68.91
43772;HTU21D;59066;54.782;32.024;2023-01-08T10:01:10;-12.91;69.11
43772;HTU21D;59066;54.782;32.024;2023-01-08T10:03:42;-12.80;68.71
43772;HTU21D;59066;54.782;32.024;2023-01-08T10:06:12;-12.64;68.47
43772;HTU21D;59066;54.782;32.024;2023-01-08T10:08:40;-12.57;67.93
43772;HTU21D;59066;54.782;32.024;2023-01-08T10:11:09;-12.44;67.92
43772;HTU21D;59066;54.782;32.024;2023-01-08T10:13:39;-12.23;68.26
43772;HTU21D;59066;54.782;32.024;2023-01-08T10:16:09;-12.19;67.44
43772;HTU21D;59066;54.782;32.024;2023-01-08T10:18:42;-11.96;67.56
43772;HTU21D;59066;54.782;32.024;2023-01-08T10:21:13;-11.40;68.48
43772;HTU21D;59066;54.782;32.024;2023-01-08T10:23:49;-10.79;67.91
43772;HTU21D;59066;54.782;32.024;2023-01-08T10:26:27;-10.01;68.33
43772;HTU21D;59066;54.782;32.024;2023-01-08T10:29:14;-9.02;70.30
43772;HTU21D;59066;54.782;32.024;2023-01-08T10:31:53;-8.43;68.84
43772;HTU21D;59066;54.782;32.024;2023-01-08T10:34:38;-7.55;71.70
43772;HTU21D;59066;54.782;32.024;2023-01-08T10:39:52;-5.99;72.77
43772;HTU21D;59066;54.782;32.024;2023-01-08T10:42:21;-5.35;73.29
43772;HTU21D;59066;54.782;32.024;2023-01-08T10:44:59;-4.95;71.22
43772;HTU21D;59066;54.782;32.024;2023-01-08T10:47:32;-4.98;70.53
43772;HTU21D;59066;54.782;32.024;2023-01-08T10:50:04;-4.91;67.09
43772;HTU21D;59066;54.782;32.024;2023-01-08T10:52:33;-5.46;60.09
43772;HTU21D;59066;54.782;32.024;2023-01-08T10:55:21;-5.55;59.43
43772;HTU21D;59066;54.782;32.024;2023-01-08T10:58:13;-5.46;61.06
43772;HTU21D;59066;54.782;32.024;2023-01-08T11:00:41;-5.05;64.53
43772;HTU21D;59066;54.782;32.024;2023-01-08T11:03:30;-5.22;60.58
43772;HTU21D;59066;54.782;32.024;2023-01-08T11:06:09;-4.89;64.37
43772;HTU21D;59066;54.782;32.024;2023-01-08T11:08:38;-4.68;65.06
43772;HTU21D;59066;54.782;32.024;2023-01-08T11:11:08;-4.67;61.44
43772;HTU21D;59066;54.782;32.024;2023-01-08T11:13:38;-4.76;62.79
43772;HTU21D;59066;54.782;32.024;2023-01-08T11:16:07;-4.85;62.87
43772;HTU21D;59066;54.782;32.024;2023-01-08T11:18:46;-4.37;65.56
43772;HTU21D;59066;54.782;32.024;2023-01-08T11:21:21;-4.83;54.93
43772;HTU21D;59066;54.782;32.024;2023-01-08T11:26:47;-4.75;61.87
43772;HTU21D;59066;54.782;32.024;2023-01-08T11:29:21;-4.65;63.28
43772;HTU21D;59066;54.782;32.024;2023-01-08T11:37:25;-5.82;54.85
43772;HTU21D;59066;54.782;32.024;2023-01-08T11:39:57;-5.92;57.93
43772;HTU21D;59066;54.782;32.024;2023-01-08T11:54:18;-7.69;55.16
43772;HTU21D;59066;54.782;32.024;2023-01-08T12:02:53;-8.38;57.89
43772;HTU21D;59066;54.782;32.024;2023-01-08T12:10:57;-7.36;61.30
43772;HTU21D;59066;54.782;32.024;2023-01-08T12:13:38;-7.22;61.25
43772;HTU21D;59066;54.782;32.024;2023-01-08T12:19:26;-7.39;58.74
43772;HTU21D;59066;54.782;32.024;2023-01-08T12:22:03;-7.33;58.85
43772;HTU21D;59066;54.782;32.024;2023-01-08T12:30:54;-8.22;59.44
43772;HTU21D;59066;54.782;32.024;2023-01-08T12:33:47;-8.33;60.28
43772;HTU21D;59066;54.782;32.024;2023-01-08T12:36:40;-8.51;60.41
43772;HTU21D;59066;54.782;32.024;2023-01-08T12:39:12;-8.55;61.14
43772;HTU21D;59066;54.782;32.024;2023-01-08T12:41:42;-8.88;61.31
43772;HTU21D;59066;54.782;32.024;2023-01-08T12:44:16;-9.07;61.50
43772;HTU21D;59066;54.782;32.024;2023-01-08T12:46:49;-9.40;60.93
43772;HTU21D;59066;54.782;32.024;2023-01-08T12:49:25;-9.75;60.87
43772;HTU21D;59066;54.782;32.024;2023-01-08T12:52:25;-9.96;61.71
43772;HTU21D;59066;54.782;32.024;2023-01-08T12:54:59;-9.93;62.66
43772;HTU21D;59066;54.782;32.024;2023-01-08T12:57:33;-9.91;63.11
43772;HTU21D;59066;54.782;32.024;2023-01-08T13:03:01;-10.31;63.00
43772;HTU21D;59066;54.782;32.024;2023-01-08T13:05:33;-10.44;63.05
43772;HTU21D;59066;54.782;32.024;2023-01-08T14:01:15;-11.46;68.23
43772;HTU21D;59066;54.782;32.024;2023-01-08T14:03:47;-11.41;68.26
43772;HTU21D;59066;54.782;32.024;2023-01-08T14:06:21;-11.41;68.33
43772;HTU21D;59066;54.782;32.024;2023-01-08T14:08:57;-11.42;68.33
43772;HTU21D;59066;54.782;32.024;2023-01-08T14:11:46;-11.46;68.23
43772;HTU21D;59066;54.782;32.024;2023-01-08T14:14:16;-11.48;68.07
43772;HTU21D;59066;54.782;32.024;2023-01-08T14:16:46;-11.49;67.94
43772;HTU21D;59066;54.782;32.024;2023-01-08T14:19:17;-11.49;67.82
43772;HTU21D;59066;54.782;32.024;2023-01-08T14:21:47;-11.53;68.13
43772;HTU21D;59066;54.782;32.024;2023-01-08T14:24:16;-11.52;68.23
43772;HTU21D;59066;54.782;32.024;2023-01-08T14:26:53;-11.51;68.26
43772;HTU21D;59066;54.782;32.024;2023-01-08T14:29:23;-11.54;68.17
43772;HTU21D;59066;54.782;32.024;2023-01-08T14:31:54;-11.56;68.25
43772;HTU21D;59066;54.782;32.024;2023-01-08T14:34:24;-11.59;68.14
43772;HTU21D;59066;54.782;32.024;2023-01-08T14:36:54;-11.65;68.04
43772;HTU21D;59066;54.782;32.024;2023-01-08T14:39:35;-11.67;68.21
43772;HTU21D;59066;54.782;32.024;2023-01-08T14:42:23;-11.78;68.25
43772;HTU21D;59066;54.782;32.024;2023-01-08T14:45:23;-11.76;68.28
43772;HTU21D;59066;54.782;32.024;2023-01-08T14:47:57;-11.77;68.30
43772;HTU21D;59066;54.782;32.024;2023-01-08T14:50:37;-11.83;68.38
43772;HTU21D;59066;54.782;32.024;2023-01-08T14:53:14;-11.92;68.22
43772;HTU21D;59066;54.782;32.024;2023-01-08T14:55:47;-11.94;68.28
43772;HTU21D;59066;54.782;32.024;2023-01-08T14:58:19;-11.91;68.36
43772;HTU21D;59066;54.782;32.024;2023-01-08T15:00:53;-11.92;68.49
43772;HTU21D;59066;54.782;32.024;2023-01-08T15:03:34;-11.95;68.55
43772;HTU21D;59066;54.782;32.024;2023-01-08T15:06:05;-11.98;68.56
43772;HTU21D;59066;54.782;32.024;2023-01-08T15:08:39;-11.96;68.69
43772;HTU21D;59066;54.782;32.024;2023-01-08T15:11:28;-11.97;68.84
43772;HTU21D;59066;54.782;32.024;2023-01-08T15:13:57;-11.89;68.97
43772;HTU21D;59066;54.782;32.024;2023-01-08T15:16:31;-11.93;69.07
43772;HTU21D;59066;54.782;32.024;2023-01-08T15:21:30;-11.93;69.03
43772;HTU21D;59066;54.782;32.024;2023-01-08T15:23:59;-11.91;69.41
43772;HTU21D;59066;54.782;32.024;2023-01-08T15:26:27;-11.93;69.26
43772;HTU21D;59066;54.782;32.024;2023-01-08T15:29:00;-11.86;69.53
43772;HTU21D;59066;54.782;32.024;2023-01-08T15:31:44;-11.79;69.65
43772;HTU21D;59066;54.782;32.024;2023-01-08T15:34:12;-11.82;69.36
43772;HTU21D;59066;54.782;32.024;2023-01-08T15:36:40;-11.80;69.67
43772;HTU21D;59066;54.782;32.024;2023-01-08T15:39:08;-11.75;69.30
43772;HTU21D;59066;54.782;32.024;2023-01-08T15:41:36;-11.81;69.22
43772;HTU21D;59066;54.782;32.024;2023-01-08T15:44:24;-11.82;69.42
43772;HTU21D;59066;54.782;32.024;2023-01-08T15:46:52;-11.88;69.12
43772;HTU21D;59066;54.782;32.024;2023-01-08T15:49:19;-11.92;69.16
43772;HTU21D;59066;54.782;32.024;2023-01-08T15:51:48;-11.94;69.34
43772;HTU21D;59066;54.782;32.024;2023-01-08T15:54:16;-11.88;69.64
43772;HTU21D;59066;54.782;32.024;2023-01-08T15:56:45;-11.97;69.16
43772;HTU21D;59066;54.782;32.024;2023-01-08T15:59:13;-11.97;69.29
43772;HTU21D;59066;54.782;32.024;2023-01-08T16:01:40;-12.01;69.25
43772;HTU21D;59066;54.782;32.024;2023-01-08T16:04:13;-12.08;69.26
43772;HTU21D;59066;54.782;32.024;2023-01-08T16:06:40;-12.10;69.25
43772;HTU21D;59066;54.782;32.024;2023-01-08T16:09:08;-12.13;69.38
43772;HTU21D;59066;54.782;32.024;2023-01-08T16:11:36;-12.14;69.33
43772;HTU21D;59066;54.782;32.024;2023-01-08T16:14:04;-12.13;69.58
43772;HTU21D;59066;54.782;32.024;2023-01-08T16:16:36;-12.18;69.45
43772;HTU21D;59066;54.782;32.024;2023-01-08T16:19:04;-12.14;69.48
43772;HTU21D;59066;54.782;32.024;2023-01-08T16:21:32;-12.12;69.63
43772;HTU21D;59066;54.782;32.024;2023-01-08T16:24:00;-12.10;69.79
43772;HTU21D;59066;54.782;32.024;2023-01-08T16:26:27;-12.10;69.59
43772;HTU21D;59066;54.782;32.024;2023-01-08T16:28:55;-12.04;69.70
43772;HTU21D;59066;54.782;32.024;2023-01-08T16:31:22;-11.93;69.90
43772;HTU21D;59066;54.782;32.024;2023-01-08T16:33:50;-11.94;69.78
43772;HTU21D;59066;54.782;32.024;2023-01-08T16:36:17;-11.83;69.71
43772;HTU21D;59066;54.782;32.024;2023-01-08T16:38:47;-11.82;69.68
43772;HTU21D;59066;54.782;32.024;2023-01-08T16:41:14;-11.76;69.81
43772;HTU21D;59066;54.782;32.024;2023-01-08T16:43:41;-11.66;69.80
43772;HTU21D;59066;54.782;32.024;2023-01-08T16:46:12;-11.56;70.00
43772;HTU21D;59066;54.782;32.024;2023-01-08T16:48:41;-11.53;69.68
43772;HTU21D;59066;54.782;32.024;2023-01-08T16:51:09;-11.60;69.49
43772;HTU21D;59066;54.782;32.024;2023-01-08T16:53:42;-11.63;69.62
43772;HTU21D;59066;54.782;32.024;2023-01-08T16:56:10;-11.59;69.57
43772;HTU21D;59066;54.782;32.024;2023-01-08T16:58:37;-11.63;69.52
43772;HTU21D;59066;54.782;32.024;2023-01-08T17:01:09;-11.56;69.61
43772;HTU21D;59066;54.782;32.024;2023-01-08T17:03:37;-11.52;69.74
43772;HTU21D;59066;54.782;32.024;2023-01-08T17:06:06;-11.50;69.67
43772;HTU21D;59066;54.782;32.024;2023-01-08T17:08:34;-11.52;69.84
43772;HTU21D;59066;54.782;32.024;2023-01-08T17:11:13;-11.46;70.24
43772;HTU21D;59066;54.782;32.024;2023-01-08T17:13:41;-11.33;70.60
43772;HTU21D;59066;54.782;32.024;2023-01-08T17:16:11;-11.26;70.44
43772;HTU21D;59066;54.782;32.024;2023-01-08T17:18:39;-11.24;70.53
43772;HTU21D;59066;54.782;32.024;2023-01-08T17:21:07;-11.19;70.50